createdAt,value
2022-09-20T00:01:11.104Z,68.80
2022-09-20T00:04:53.075Z,69.70
2022-09-20T00:08:35.600Z,69.00
2022-09-20T00:12:17.645Z,69.20
2022-09-20T00:16:00.154Z,69.30
2022-09-20T00:19:42.054Z,69.40
2022-09-20T00:23:23.982Z,69.50
2022-09-20T00:27:06.052Z,69.50
2022-09-20T00:30:49.519Z,69.60
2022-09-20T00:34:49.880Z,69.60
2022-09-20T00:38:31.972Z,69.60
2022-09-20T00:42:14.942Z,69.40
2022-09-20T00:45:57.157Z,69.40
2022-09-20T00:49:39.179Z,69.40
2022-09-20T00:53:38.230Z,69.40
2022-09-20T00:57:20.312Z,69.70
2022-09-20T01:01:04.634Z,69.30
2022-09-20T01:04:48.078Z,69.30
2022-09-20T01:08:31.697Z,69.30
2022-09-20T01:12:18.304Z,69.20
2022-09-20T01:16:02.921Z,69.40
2022-09-20T01:20:11.313Z,69.30
2022-09-20T01:23:56.161Z,71.00
2022-09-20T01:27:42.534Z,69.50
2022-09-20T01:31:26.890Z,69.70
2022-09-20T01:35:11.668Z,69.30
2022-09-20T01:39:12.025Z,69.40
2022-09-20T01:43:03.924Z,69.60
2022-09-20T01:46:50.722Z,70.00
2022-09-20T01:51:03.376Z,69.50
2022-09-20T01:55:00.258Z,71.00
2022-09-20T01:59:23.152Z,70.90
2022-09-20T02:03:15.711Z,71.40
2022-09-20T02:07:12.600Z,70.90
2022-09-20T02:11:08.086Z,70.90
2022-09-20T02:15:17.883Z,70.80
2022-09-20T02:19:36.455Z,70.70
2022-09-20T02:23:48.438Z,71.50
2022-09-20T02:27:36.397Z,70.80
2022-09-20T02:31:46.308Z,70.60
2022-09-20T02:36:02.007Z,71.10
2022-09-20T02:39:48.964Z,70.60
2022-09-20T02:43:37.835Z,70.50
2022-09-20T02:47:34.285Z,71.00
2022-09-20T02:51:42.409Z,71.20
2022-09-20T02:55:55.262Z,71.50
2022-09-20T02:59:42.387Z,71.40
2022-09-20T03:03:47.217Z,70.70
2022-09-20T03:07:57.547Z,71.60
2022-09-20T03:11:47.566Z,71.10
2022-09-20T03:16:07.147Z,71.50
2022-09-20T03:19:56.928Z,72.30
2022-09-20T03:23:54.067Z,71.00
2022-09-20T03:27:56.732Z,71.30
2022-09-20T03:32:08.628Z,72.30
2022-09-20T03:36:24.769Z,72.50
2022-09-20T03:40:19.582Z,72.30
2022-09-20T03:44:34.543Z,70.60
2022-09-20T03:48:37.567Z,72.90
2022-09-20T03:52:35.623Z,72.70
2022-09-20T03:56:36.123Z,71.30
2022-09-20T04:00:21.166Z,71.30
2022-09-20T04:04:19.892Z,71.70
2022-09-20T04:08:21.685Z,71.90
2022-09-20T04:12:18.717Z,71.80
2022-09-20T04:16:31.739Z,73.00
2022-09-20T04:20:16.911Z,73.90
2022-09-20T04:24:05.437Z,72.40
2022-09-20T04:27:52.916Z,73.20
2022-09-20T04:32:00.821Z,72.70
2022-09-20T04:36:29.431Z,72.60
2022-09-20T04:40:36.305Z,73.90
2022-09-20T04:44:55.877Z,74.90
2022-09-20T04:49:02.833Z,74.90
2022-09-20T04:52:57.028Z,73.70
2022-09-20T04:56:54.307Z,73.90
2022-09-20T05:01:16.687Z,74.50
2022-09-20T05:05:30.324Z,74.90
2022-09-20T05:09:33.676Z,75.00
2022-09-20T05:13:36.679Z,75.10
2022-09-20T05:17:56.235Z,73.80
2022-09-20T05:22:02.409Z,75.20
2022-09-20T05:25:59.495Z,73.40
2022-09-20T05:30:00.262Z,75.20
2022-09-20T05:34:27.252Z,74.50
2022-09-20T05:38:41.014Z,75.50
2022-09-20T05:42:41.521Z,75.50
2022-09-20T05:46:57.710Z,74.80
2022-09-20T05:51:03.827Z,75.30
2022-09-20T05:55:19.957Z,74.40
2022-09-20T05:59:14.286Z,75.50
2022-09-20T06:03:21.594Z,75.10
2022-09-20T06:07:41.704Z,75.50
2022-09-20T06:11:44.588Z,75.20
2022-09-20T06:15:47.991Z,74.00
2022-09-20T06:19:48.152Z,74.90
2022-09-20T06:23:31.846Z,74.50
2022-09-20T06:27:26.355Z,74.10
2022-09-20T06:31:10.687Z,75.10
2022-09-20T06:34:53.387Z,74.20
2022-09-20T06:39:29.515Z,74.20
2022-09-20T06:43:14.508Z,74.40
2022-09-20T06:46:56.485Z,73.90
2022-09-20T06:50:39.184Z,74.00
2022-09-20T06:54:22.306Z,73.90
2022-09-20T06:58:04.328Z,73.90
2022-09-20T07:01:47.184Z,73.80
2022-09-20T07:05:29.472Z,73.80
2022-09-20T07:09:12.153Z,73.90
2022-09-20T07:13:02.129Z,73.70
2022-09-20T07:16:44.692Z,73.50
2022-09-20T07:20:27.606Z,73.20
2022-09-20T07:24:09.581Z,72.80
2022-09-20T07:27:51.849Z,72.60
2022-09-20T07:31:33.985Z,72.20
2022-09-20T07:35:16.270Z,71.60
2022-09-20T07:38:58.353Z,70.90
2022-09-20T07:42:40.415Z,70.20
2022-09-20T07:46:23.648Z,69.80
2022-09-20T07:50:06.343Z,69.50
2022-09-20T07:53:48.390Z,69.50
2022-09-20T07:57:35.032Z,69.20
2022-09-20T08:01:17.116Z,68.90
2022-09-20T08:04:59.342Z,68.50
2022-09-20T08:08:41.357Z,68.10
2022-09-20T08:16:28.048Z,67.70
2022-09-20T08:20:10.131Z,67.60
2022-09-20T08:23:52.603Z,67.50
2022-09-20T08:27:34.650Z,67.40
2022-09-20T08:31:21.371Z,67.40
2022-09-20T08:35:04.014Z,67.20
2022-09-20T08:42:48.959Z,66.80
2022-09-20T08:46:35.789Z,66.70
2022-09-20T08:50:18.149Z,66.50
2022-09-20T08:54:00.645Z,66.30
2022-09-20T08:57:43.758Z,66.00
2022-09-20T09:01:27.545Z,65.60
2022-09-20T09:05:40.586Z,65.20
2022-09-20T09:09:26.259Z,62.00
2022-09-20T09:13:08.364Z,61.50
2022-09-20T09:16:50.389Z,61.30
2022-09-20T09:20:41.432Z,58.20
2022-09-20T09:24:25.636Z,53.20
2022-09-20T09:28:07.366Z,53.70
2022-09-20T09:31:51.928Z,52.80
2022-09-20T09:35:36.335Z,51.10
2022-09-20T09:39:27.856Z,49.70
2022-09-20T09:43:23.516Z,46.00
2022-09-20T09:47:29.177Z,44.10
2022-09-20T09:51:17.110Z,44.60
2022-09-20T09:55:04.921Z,44.20
2022-09-20T09:58:59.244Z,44.40
2022-09-20T10:03:00.439Z,43.00
2022-09-20T10:07:03.638Z,41.30
2022-09-20T10:11:04.247Z,41.70
2022-09-20T10:15:13.553Z,44.50
2022-09-20T10:19:06.676Z,44.50
2022-09-20T10:23:39.297Z,42.60
2022-09-20T10:27:30.465Z,44.10
2022-09-20T10:31:35.849Z,41.80
2022-09-20T10:35:48.491Z,41.60
2022-09-20T10:39:41.403Z,41.80
2022-09-20T10:43:41.015Z,41.60
2022-09-20T10:47:33.489Z,40.70
2022-09-20T10:51:53.785Z,40.50
2022-09-20T10:55:47.460Z,40.00
2022-09-20T10:59:54.879Z,39.80
2022-09-20T11:04:07.030Z,39.30
2022-09-20T11:08:09.046Z,37.70
2022-09-20T11:11:55.965Z,37.10
2022-09-20T11:16:10.640Z,36.90
2022-09-20T11:20:07.139Z,35.10
2022-09-20T11:24:01.994Z,35.30
2022-09-20T11:27:53.266Z,34.60
2022-09-20T11:31:45.076Z,34.40
2022-09-20T11:35:53.065Z,34.30
2022-09-20T11:40:00.368Z,34.30
2022-09-20T11:43:46.529Z,33.80
2022-09-20T11:47:53.226Z,34.60
2022-09-20T11:51:57.931Z,36.50
2022-09-20T11:55:50.283Z,32.70
2022-09-20T11:59:43.506Z,31.90
2022-09-20T12:03:36.529Z,31.50
2022-09-20T12:07:25.172Z,30.10
2022-09-20T12:11:11.042Z,31.20
2022-09-20T12:14:58.986Z,31.60
2022-09-20T12:18:54.015Z,31.40
2022-09-20T12:22:36.109Z,31.30
2022-09-20T12:26:21.075Z,33.60
2022-09-20T12:30:17.703Z,33.10
2022-09-20T12:34:01.213Z,34.90
2022-09-20T12:37:43.282Z,34.30
2022-09-20T12:41:28.666Z,34.20
2022-09-20T12:45:20.621Z,33.90
2022-09-20T12:49:40.583Z,31.70
2022-09-20T12:53:22.906Z,30.50
2022-09-20T12:57:32.253Z,30.00
2022-09-20T13:01:14.813Z,27.90
2022-09-20T13:04:57.043Z,28.50
2022-09-20T13:08:42.903Z,28.40
2022-09-20T13:12:24.788Z,26.90
2022-09-20T13:16:07.363Z,26.90
2022-09-20T13:19:50.930Z,26.00
2022-09-20T13:23:45.631Z,25.00
2022-09-20T13:27:38.536Z,23.50
2022-09-20T13:31:24.709Z,22.80
2022-09-20T13:35:08.497Z,23.50
2022-09-20T13:38:50.714Z,24.50
2022-09-20T13:42:37.292Z,24.40
2022-09-20T13:46:46.155Z,23.80
2022-09-20T13:50:28.372Z,23.30
2022-09-20T13:54:32.934Z,24.20
2022-09-20T13:58:20.418Z,23.70
2022-09-20T14:02:03.703Z,25.60
2022-09-20T14:05:53.353Z,26.70
2022-09-20T14:09:39.545Z,27.20
2022-09-20T14:13:23.119Z,27.80
2022-09-20T14:17:08.955Z,28.50
2022-09-20T14:20:55.350Z,28.90
2022-09-20T14:24:37.789Z,29.40
2022-09-20T14:28:24.586Z,29.90
2022-09-20T14:32:19.531Z,30.30
2022-09-20T14:36:01.530Z,30.50
2022-09-20T14:40:14.693Z,31.20
2022-09-20T14:43:59.434Z,31.10
2022-09-20T14:47:55.123Z,31.90
2022-09-20T14:51:36.952Z,32.50
2022-09-20T14:55:23.185Z,32.50
2022-09-20T14:59:05.624Z,33.00
2022-09-20T15:02:48.263Z,33.40
2022-09-20T15:06:30.169Z,33.50
2022-09-20T15:10:15.857Z,33.70
2022-09-20T15:13:59.086Z,34.00
2022-09-20T15:17:42.736Z,34.10
2022-09-20T15:21:25.865Z,34.40
2022-09-20T15:25:14.047Z,34.70
2022-09-20T15:28:55.957Z,35.10
2022-09-20T15:32:39.007Z,35.40
2022-09-20T15:36:21.040Z,35.60
2022-09-20T15:40:04.226Z,36.00
2022-09-20T15:43:47.314Z,36.40
2022-09-20T15:47:29.342Z,36.50
2022-09-20T15:51:12.566Z,36.80
2022-09-20T15:54:54.548Z,36.90
2022-09-20T15:58:36.808Z,36.90
2022-09-20T16:02:20.709Z,37.00
2022-09-20T16:06:05.468Z,37.10
2022-09-20T16:09:47.325Z,37.30
2022-09-20T16:13:29.890Z,37.40
2022-09-20T16:17:11.813Z,37.70
2022-09-20T16:20:53.870Z,37.90
2022-09-20T16:24:36.561Z,37.90
2022-09-20T16:28:18.609Z,38.00
2022-09-20T16:32:03.803Z,38.30
2022-09-20T16:35:45.835Z,38.40
2022-09-20T16:39:30.155Z,38.60
2022-09-20T16:43:12.246Z,38.80
2022-09-20T16:46:55.745Z,38.90
2022-09-20T16:50:37.902Z,39.10
2022-09-20T16:54:20.467Z,39.20
2022-09-20T16:58:02.562Z,39.50
2022-09-20T17:01:45.309Z,39.60
2022-09-20T17:05:27.281Z,39.70
2022-09-20T17:09:10.029Z,39.80
2022-09-20T17:12:57.951Z,39.90
2022-09-20T17:16:41.967Z,40.10
2022-09-20T17:20:27.154Z,40.20
2022-09-20T17:24:09.729Z,40.20
2022-09-20T17:27:51.583Z,40.60
2022-09-20T17:31:36.585Z,40.60
2022-09-20T17:35:18.659Z,41.00
2022-09-20T17:39:04.531Z,41.20
2022-09-20T17:42:47.701Z,41.50
2022-09-20T17:46:31.837Z,41.60
2022-09-20T17:50:15.459Z,41.90
2022-09-20T17:53:58.136Z,42.10
2022-09-20T17:57:41.354Z,42.30
2022-09-20T18:01:23.541Z,42.50
2022-09-20T18:05:05.734Z,42.70
2022-09-20T18:09:05.479Z,42.70
2022-09-20T18:12:50.258Z,43.80
2022-09-20T18:16:34.039Z,43.20
2022-09-20T18:20:16.518Z,43.50
2022-09-20T18:23:59.357Z,43.90
2022-09-20T18:27:41.631Z,44.20
2022-09-20T18:31:37.222Z,44.40
2022-09-20T18:35:19.300Z,46.60
2022-09-20T18:39:01.448Z,45.20
2022-09-20T18:42:43.367Z,45.40
2022-09-20T18:46:27.076Z,45.70
2022-09-20T18:50:10.718Z,45.90
2022-09-20T18:53:53.163Z,46.10
2022-09-20T18:57:35.278Z,46.30
2022-09-20T19:01:48.634Z,46.70
2022-09-20T19:05:44.328Z,48.60
2022-09-20T19:09:57.272Z,47.00
2022-09-20T19:13:58.013Z,48.60
2022-09-20T19:18:03.327Z,48.60
2022-09-20T19:21:57.676Z,49.00
2022-09-20T19:25:48.495Z,49.30
2022-09-20T19:29:32.129Z,49.00
2022-09-20T19:33:19.588Z,48.50
2022-09-20T19:37:32.764Z,49.50
2022-09-20T19:41:41.211Z,50.30
2022-09-20T19:45:31.468Z,50.30
2022-09-20T19:49:14.641Z,50.30
2022-09-20T19:52:56.819Z,49.50
2022-09-20T19:56:59.617Z,49.70
2022-09-20T20:00:44.832Z,51.90
2022-09-20T20:04:27.201Z,50.50
2022-09-20T20:08:25.871Z,50.60
2022-09-20T20:12:07.870Z,53.00
2022-09-20T20:15:58.210Z,51.00
2022-09-20T20:20:14.916Z,52.30
2022-09-20T20:23:56.806Z,54.10
2022-09-20T20:27:39.099Z,51.70
2022-09-20T20:31:21.882Z,52.10
2022-09-20T20:35:04.427Z,52.40
2022-09-20T20:38:50.040Z,52.70
2022-09-20T20:42:32.159Z,52.90
2022-09-20T20:46:18.778Z,53.30
2022-09-20T20:50:00.758Z,54.10
2022-09-20T20:53:54.659Z,54.10
2022-09-20T20:57:36.704Z,56.80
2022-09-20T21:01:21.887Z,54.60
2022-09-20T21:05:04.370Z,55.00
2022-09-20T21:08:49.605Z,55.00
2022-09-20T21:12:31.894Z,55.30
2022-09-20T21:16:16.695Z,55.60
2022-09-20T21:19:58.790Z,55.70
2022-09-20T21:23:40.661Z,55.90
2022-09-20T21:27:22.792Z,56.10
2022-09-20T21:31:06.420Z,56.50
2022-09-20T21:34:48.577Z,57.00
2022-09-20T21:38:34.372Z,57.10
2022-09-20T21:42:17.326Z,57.20
2022-09-20T21:45:59.297Z,57.60
2022-09-20T21:49:41.278Z,58.00
2022-09-20T21:53:23.341Z,58.20
2022-09-20T21:57:05.958Z,58.30
2022-09-20T22:01:06.893Z,58.60
2022-09-20T22:04:50.005Z,60.60
2022-09-20T22:08:31.960Z,59.00
2022-09-20T22:12:13.851Z,59.30
2022-09-20T22:16:05.268Z,59.20
2022-09-20T22:19:47.280Z,61.10
2022-09-20T22:23:30.222Z,59.70
2022-09-20T22:27:12.076Z,59.90
2022-09-20T22:30:54.020Z,60.00
2022-09-20T22:34:35.963Z,60.20
2022-09-20T22:38:18.582Z,60.50
2022-09-20T22:42:00.740Z,60.70
2022-09-20T22:45:42.944Z,60.70
2022-09-20T22:49:24.911Z,60.80
2022-09-20T22:53:06.853Z,61.00
2022-09-20T22:56:49.047Z,61.10
2022-09-20T23:00:31.042Z,61.30
2022-09-20T23:04:18.994Z,61.50
2022-09-20T23:08:01.132Z,61.60
2022-09-20T23:11:43.909Z,61.60
2022-09-20T23:15:25.785Z,61.60
2022-09-20T23:19:09.157Z,61.60
2022-09-20T23:22:51.196Z,61.70
2022-09-20T23:26:35.011Z,61.70
2022-09-20T23:30:17.108Z,61.70
2022-09-20T23:34:01.664Z,61.80
2022-09-20T23:37:43.565Z,61.80
2022-09-20T23:41:27.488Z,61.80
2022-09-20T23:45:10.346Z,61.80
2022-09-20T23:48:52.807Z,61.90
2022-09-20T23:52:34.707Z,62.10
2022-09-20T23:56:16.743Z,62.20
2022-09-20T23:59:59.403Z,62.30
